createdAt,value
2023-05-01T00:01:38.828Z,6.91
2023-05-01T00:04:40.822Z,6.93
2023-05-01T00:07:42.720Z,6.97
2023-05-01T00:10:44.645Z,6.96
2023-05-01T00:13:46.701Z,6.85
2023-05-01T00:16:48.565Z,6.88
2023-05-01T00:19:54.447Z,6.89
2023-05-01T00:22:57.891Z,6.89
2023-05-01T00:25:59.679Z,6.92
2023-05-01T00:29:01.494Z,6.87
2023-05-01T00:32:05.847Z,6.88
2023-05-01T00:35:08.225Z,6.82
2023-05-01T00:38:10.236Z,6.86
2023-05-01T00:41:12.495Z,6.83
2023-05-01T00:44:14.696Z,6.86
2023-05-01T00:47:16.813Z,6.86
2023-05-01T00:50:18.775Z,6.89
2023-05-01T00:53:22.194Z,6.90
2023-05-01T00:56:25.348Z,6.88
2023-05-01T00:59:27.269Z,6.85
2023-05-01T01:02:29.188Z,6.84
2023-05-01T01:05:35.782Z,6.81
2023-05-01T01:08:46.196Z,6.83
2023-05-01T01:12:10.684Z,6.81
2023-05-01T01:15:50.747Z,6.78
2023-05-01T01:19:18.234Z,6.75
2023-05-01T01:22:24.108Z,6.78
2023-05-01T01:25:45.683Z,6.72
2023-05-01T01:29:10.994Z,6.75
2023-05-01T01:32:18.691Z,6.69
2023-05-01T01:35:24.453Z,6.75
2023-05-01T01:38:40.852Z,6.72
2023-05-01T01:41:47.832Z,6.68
2023-05-01T01:44:53.210Z,6.72
2023-05-01T01:47:57.477Z,6.71
2023-05-01T01:51:05.029Z,6.72
2023-05-01T01:54:08.389Z,6.70
2023-05-01T01:57:13.168Z,6.68
2023-05-01T02:00:16.615Z,6.68
2023-05-01T02:03:23.902Z,6.64
2023-05-01T02:06:27.099Z,6.66
2023-05-01T02:09:30.902Z,6.70
2023-05-01T02:12:34.275Z,6.70
2023-05-01T02:15:38.228Z,6.69
2023-05-01T02:18:41.054Z,6.61
2023-05-01T02:21:44.277Z,6.64
2023-05-01T02:24:47.432Z,6.63
2023-05-01T02:28:12.821Z,6.67
2023-05-01T02:31:14.944Z,6.58
2023-05-01T02:34:17.151Z,6.59
2023-05-01T02:37:19.125Z,6.49
2023-05-01T02:40:22.095Z,6.58
2023-05-01T02:43:27.911Z,6.56
2023-05-01T02:46:33.443Z,6.63
2023-05-01T02:49:36.695Z,6.63
2023-05-01T02:52:38.854Z,6.65
2023-05-01T02:55:59.521Z,6.61
2023-05-01T02:59:02.081Z,6.64
2023-05-01T03:02:04.354Z,6.63
2023-05-01T03:05:06.710Z,6.55
2023-05-01T03:08:08.616Z,6.47
2023-05-01T03:11:10.590Z,6.44
2023-05-01T03:14:12.648Z,6.53
2023-05-01T03:17:14.534Z,6.47
2023-05-01T03:20:16.536Z,6.50
2023-05-01T03:23:18.388Z,6.53
2023-05-01T03:26:20.302Z,6.52
2023-05-01T03:29:22.209Z,6.51
2023-05-01T03:32:24.317Z,6.52
2023-05-01T03:35:27.728Z,6.49
2023-05-01T03:38:30.897Z,6.54
2023-05-01T03:41:52.825Z,6.54
2023-05-01T03:44:59.999Z,6.53
2023-05-01T03:48:03.179Z,6.54
2023-05-01T03:51:06.087Z,6.46
2023-05-01T03:54:09.609Z,6.47
2023-05-01T03:57:27.592Z,6.48
2023-05-01T04:00:29.690Z,6.51
2023-05-01T04:03:31.698Z,6.57
2023-05-01T04:06:33.733Z,6.60
2023-05-01T04:09:35.649Z,6.59
2023-05-01T04:12:37.562Z,6.71
2023-05-01T04:15:39.518Z,6.71
2023-05-01T04:18:41.445Z,6.76
2023-05-01T04:21:43.358Z,6.81
2023-05-01T04:24:45.752Z,6.79
2023-05-01T04:27:47.927Z,6.79
2023-05-01T04:30:50.995Z,6.81
2023-05-01T04:33:53.810Z,6.84
2023-05-01T04:36:57.344Z,6.88
2023-05-01T04:39:59.429Z,6.92
2023-05-01T04:43:01.987Z,6.92
2023-05-01T04:46:05.130Z,6.89
2023-05-01T04:49:08.381Z,6.93
2023-05-01T04:52:10.822Z,6.90
2023-05-01T04:55:26.189Z,6.86
2023-05-01T04:58:37.744Z,6.87
2023-05-01T05:01:45.463Z,6.91
2023-05-01T05:04:47.581Z,6.89
2023-05-01T05:07:49.653Z,6.74
2023-05-01T05:11:07.355Z,6.86
2023-05-01T05:14:24.099Z,6.92
2023-05-01T05:17:26.931Z,6.96
2023-05-01T05:20:29.004Z,7.04
2023-05-01T05:23:31.403Z,7.07
2023-05-01T05:26:33.430Z,7.16
2023-05-01T05:29:37.855Z,7.28
2023-05-01T05:32:39.939Z,7.43
2023-05-01T05:35:42.052Z,7.49
2023-05-01T05:38:44.088Z,7.47
2023-05-01T05:41:50.178Z,7.61
2023-05-01T05:44:52.157Z,7.62
2023-05-01T05:47:54.107Z,7.68
2023-05-01T05:50:56.768Z,7.70
2023-05-01T05:53:59.524Z,7.73
2023-05-01T05:57:03.811Z,7.81
2023-05-01T06:00:09.405Z,7.82
2023-05-01T06:03:23.681Z,7.85
2023-05-01T06:06:28.386Z,7.90
2023-05-01T06:09:30.827Z,7.85
2023-05-01T06:12:34.163Z,7.80
2023-05-01T06:15:38.483Z,7.88
2023-05-01T06:18:42.405Z,7.96
2023-05-01T06:21:45.749Z,7.90
2023-05-01T06:24:47.858Z,7.86
2023-05-01T06:27:50.746Z,7.83
2023-05-01T06:30:54.696Z,7.81
2023-05-01T06:33:57.816Z,7.78
2023-05-01T06:37:18.437Z,7.84
2023-05-01T06:40:20.360Z,7.95
2023-05-01T06:43:22.523Z,8.02
2023-05-01T06:46:24.568Z,8.09
2023-05-01T06:49:26.500Z,8.04
2023-05-01T06:52:28.608Z,8.05
2023-05-01T06:55:33.284Z,8.11
2023-05-01T06:58:35.873Z,8.17
2023-05-01T07:01:37.849Z,8.30
2023-05-01T07:04:40.142Z,8.39
2023-05-01T07:07:47.369Z,8.37
2023-05-01T07:10:54.173Z,8.37
2023-05-01T07:13:56.121Z,8.30
2023-05-01T07:16:58.569Z,8.25
2023-05-01T07:20:01.717Z,8.18
2023-05-01T07:23:05.899Z,8.13
2023-05-01T07:26:09.141Z,8.09
2023-05-01T07:29:11.867Z,8.11
2023-05-01T07:32:14.513Z,8.16
2023-05-01T07:35:16.676Z,8.23
2023-05-01T07:38:18.548Z,8.25
2023-05-01T07:41:21.877Z,8.35
2023-05-01T07:44:23.994Z,8.38
2023-05-01T07:47:27.686Z,8.31
2023-05-01T07:50:29.690Z,8.35
2023-05-01T07:53:32.001Z,8.32
2023-05-01T07:56:33.944Z,8.27
2023-05-01T07:59:35.814Z,8.27
2023-05-01T08:02:37.891Z,8.32
2023-05-01T08:05:41.717Z,8.49
2023-05-01T08:08:43.636Z,8.63
2023-05-01T08:11:45.648Z,8.71
2023-05-01T08:14:47.603Z,8.76
2023-05-01T08:17:51.263Z,8.81
2023-05-01T08:20:53.264Z,8.97
2023-05-01T08:23:56.436Z,9.04
2023-05-01T08:26:58.475Z,8.79
2023-05-01T08:30:00.342Z,8.84
2023-05-01T08:33:02.311Z,8.79
2023-05-01T08:36:04.350Z,8.81
2023-05-01T08:39:06.557Z,8.83
2023-05-01T08:42:08.701Z,8.87
2023-05-01T08:45:11.756Z,8.93
2023-05-01T08:48:16.367Z,9.02
2023-05-01T08:51:21.283Z,9.23
2023-05-01T08:54:23.662Z,9.40
2023-05-01T08:57:27.433Z,9.63
2023-05-01T09:00:31.218Z,9.87
2023-05-01T09:03:33.462Z,10.05
2023-05-01T09:06:36.321Z,10.09
2023-05-01T09:09:38.144Z,10.25
2023-05-01T09:12:41.743Z,10.35
2023-05-01T09:15:44.306Z,10.30
2023-05-01T09:18:46.797Z,10.42
2023-05-01T09:21:48.950Z,10.49
2023-05-01T09:24:50.831Z,10.53
2023-05-01T09:27:52.839Z,10.52
2023-05-01T09:30:54.798Z,10.47
2023-05-01T09:33:58.326Z,10.58
2023-05-01T09:37:00.312Z,10.59
2023-05-01T09:40:09.299Z,10.69
2023-05-01T09:43:11.876Z,10.78
2023-05-01T09:46:13.945Z,10.88
2023-05-01T09:49:16.232Z,10.94
2023-05-01T09:52:18.203Z,11.06
2023-05-01T09:55:20.532Z,11.19
2023-05-01T09:58:28.809Z,11.23
2023-05-01T10:01:41.348Z,11.28
2023-05-01T10:04:43.616Z,11.37
2023-05-01T10:08:02.488Z,11.44
2023-05-01T10:11:05.379Z,11.46
2023-05-01T10:14:08.880Z,11.57
2023-05-01T10:17:20.751Z,11.68
2023-05-01T10:20:22.766Z,11.65
2023-05-01T10:23:25.550Z,11.82
2023-05-01T10:26:27.671Z,11.77
2023-05-01T10:29:31.513Z,11.91
2023-05-01T10:32:34.350Z,12.01
2023-05-01T10:35:40.639Z,12.10
2023-05-01T10:38:48.297Z,12.18
2023-05-01T10:41:59.260Z,12.25
2023-05-01T10:45:30.833Z,12.46
2023-05-01T10:48:39.035Z,12.66
2023-05-01T10:51:58.911Z,12.61
2023-05-01T10:55:32.088Z,12.57
2023-05-01T10:58:40.819Z,12.82
2023-05-01T11:01:52.174Z,12.93
2023-05-01T11:04:56.375Z,12.98
2023-05-01T11:08:30.602Z,12.91
2023-05-01T11:11:32.428Z,12.97
2023-05-01T11:14:57.549Z,13.12
2023-05-01T11:18:04.094Z,13.09
2023-05-01T11:21:06.483Z,13.19
2023-05-01T11:24:09.383Z,13.36
2023-05-01T11:27:13.827Z,13.55
2023-05-01T11:30:17.420Z,13.72
2023-05-01T11:33:25.894Z,13.92
2023-05-01T11:36:28.877Z,14.15
2023-05-01T11:39:30.766Z,14.11
2023-05-01T11:42:32.698Z,14.22
2023-05-01T11:45:38.035Z,14.23
2023-05-01T11:48:40.181Z,14.43
2023-05-01T11:51:42.106Z,14.67
2023-05-01T11:54:48.501Z,14.68
2023-05-01T11:57:52.428Z,14.81
2023-05-01T12:00:54.431Z,14.83
2023-05-01T12:03:56.451Z,14.77
2023-05-01T12:06:58.532Z,14.85
2023-05-01T12:10:00.857Z,14.68
2023-05-01T12:13:04.598Z,14.64
2023-05-01T12:16:06.880Z,14.63
2023-05-01T12:19:09.799Z,14.62
2023-05-01T12:22:11.759Z,14.63
2023-05-01T12:25:14.524Z,14.64
2023-05-01T12:28:20.494Z,14.56
2023-05-01T12:31:23.411Z,14.57
2023-05-01T12:34:32.462Z,14.66
2023-05-01T12:37:34.548Z,14.68
2023-05-01T12:40:36.426Z,14.85
2023-05-01T12:43:38.423Z,14.98
2023-05-01T12:46:40.597Z,14.97
2023-05-01T12:49:42.745Z,14.93
2023-05-01T12:52:44.674Z,14.90
2023-05-01T12:55:48.352Z,14.72
2023-05-01T12:58:52.629Z,14.62
2023-05-01T13:02:00.475Z,14.54
2023-05-01T13:05:09.757Z,14.48
2023-05-01T13:08:11.687Z,14.45
2023-05-01T13:11:16.321Z,14.52
2023-05-01T13:14:18.217Z,14.51
2023-05-01T13:17:29.058Z,14.65
2023-05-01T13:20:31.623Z,14.69
2023-05-01T13:23:33.767Z,14.76
2023-05-01T13:26:36.130Z,14.80
2023-05-01T13:29:46.395Z,14.82
2023-05-01T13:32:49.669Z,14.74
2023-05-01T13:35:51.710Z,14.72
2023-05-01T13:38:56.307Z,14.80
2023-05-01T13:41:58.712Z,14.81
2023-05-01T13:45:03.033Z,14.99
2023-05-01T13:48:05.417Z,15.29
2023-05-01T13:51:11.642Z,15.41
2023-05-01T13:54:14.146Z,15.43
2023-05-01T13:57:17.429Z,15.59
2023-05-01T14:00:20.768Z,15.79
2023-05-01T14:03:22.826Z,15.65
2023-05-01T14:06:24.824Z,15.53
2023-05-01T14:09:28.293Z,15.53
2023-05-01T14:12:31.865Z,15.43
2023-05-01T14:15:34.139Z,15.30
2023-05-01T14:18:36.688Z,15.01
2023-05-01T14:21:42.606Z,14.70
2023-05-01T14:24:44.492Z,14.63
2023-05-01T14:27:46.304Z,14.47
2023-05-01T14:30:49.622Z,14.43
2023-05-01T14:33:58.670Z,14.37
2023-05-01T14:37:00.656Z,14.27
2023-05-01T14:40:03.722Z,14.22
2023-05-01T14:43:06.134Z,14.18
2023-05-01T14:46:08.340Z,14.10
2023-05-01T14:49:11.751Z,13.95
2023-05-01T14:52:19.645Z,13.89
2023-05-01T14:55:28.070Z,13.88
2023-05-01T14:58:30.030Z,13.88
2023-05-01T15:01:32.446Z,13.80
2023-05-01T15:04:34.439Z,13.86
2023-05-01T15:07:36.397Z,13.87
2023-05-01T15:10:38.775Z,13.83
2023-05-01T15:13:42.670Z,13.83
2023-05-01T15:16:44.627Z,13.84
2023-05-01T15:19:46.671Z,13.79
2023-05-01T15:22:48.566Z,13.85
2023-05-01T15:25:50.961Z,13.88
2023-05-01T15:28:53.067Z,13.77
2023-05-01T15:32:08.160Z,13.62
2023-05-01T15:35:14.030Z,13.57
2023-05-01T15:38:18.740Z,13.47
2023-05-01T15:41:21.406Z,13.37
2023-05-01T15:44:23.322Z,13.30
2023-05-01T15:47:25.271Z,13.15
2023-05-01T15:50:27.740Z,13.09
2023-05-01T15:53:29.646Z,12.90
2023-05-01T15:56:36.761Z,12.88
2023-05-01T15:59:41.454Z,12.72
2023-05-01T16:02:44.715Z,12.65
2023-05-01T16:05:49.542Z,12.54
2023-05-01T16:08:51.907Z,12.44
2023-05-01T16:11:53.867Z,12.34
2023-05-01T16:14:56.220Z,12.27
2023-05-01T16:17:58.506Z,12.25
2023-05-01T16:21:01.064Z,12.23
2023-05-01T16:24:03.117Z,12.24
2023-05-01T16:27:05.060Z,12.18
2023-05-01T16:30:08.639Z,12.16
2023-05-01T16:33:18.804Z,12.11
2023-05-01T16:36:21.502Z,12.07
2023-05-01T16:39:23.845Z,11.99
2023-05-01T16:42:25.879Z,11.94
2023-05-01T16:45:28.119Z,11.86
2023-05-01T16:48:31.744Z,11.82
2023-05-01T16:51:33.661Z,11.75
2023-05-01T16:54:36.296Z,11.68
2023-05-01T16:57:38.169Z,11.55
2023-05-01T17:00:41.336Z,11.51
2023-05-01T17:03:43.277Z,11.45
2023-05-01T17:06:45.263Z,11.36
2023-05-01T17:09:47.174Z,11.31
2023-05-01T17:12:49.179Z,11.22
2023-05-01T17:15:52.669Z,11.17
2023-05-01T17:18:54.735Z,11.08
2023-05-01T17:21:58.202Z,11.00
2023-05-01T17:25:02.487Z,10.88
2023-05-01T17:28:04.420Z,10.78
2023-05-01T17:31:06.389Z,10.67
2023-05-01T17:34:08.253Z,10.55
2023-05-01T17:37:10.220Z,10.46
2023-05-01T17:40:12.420Z,10.34
2023-05-01T17:43:14.283Z,10.22
2023-05-01T17:46:17.117Z,10.08
2023-05-01T17:49:19.053Z,9.99
2023-05-01T17:52:21.239Z,9.86
2023-05-01T17:55:23.192Z,9.76
2023-05-01T17:58:25.001Z,9.68
2023-05-01T18:01:27.034Z,9.58
2023-05-01T18:04:29.626Z,9.51
2023-05-01T18:07:31.613Z,9.41
2023-05-01T18:10:34.040Z,9.34
2023-05-01T18:13:40.011Z,9.18
2023-05-01T18:16:42.195Z,9.09
2023-05-01T18:19:44.114Z,8.95
2023-05-01T18:22:46.045Z,8.83
2023-05-01T18:25:48.278Z,8.76
2023-05-01T18:28:50.632Z,8.69
2023-05-01T18:31:54.715Z,8.61
2023-05-01T18:34:56.834Z,8.55
2023-05-01T18:37:58.652Z,8.46
2023-05-01T18:41:00.578Z,8.39
2023-05-01T18:44:04.154Z,8.29
2023-05-01T18:47:06.098Z,8.21
2023-05-01T18:50:10.114Z,8.14
2023-05-01T18:53:12.026Z,8.08
2023-05-01T18:56:13.883Z,8.01
2023-05-01T18:59:17.212Z,7.93
2023-05-01T19:02:19.182Z,7.87
2023-05-01T19:05:22.723Z,7.83
2023-05-01T19:08:24.719Z,7.77
2023-05-01T19:11:30.420Z,7.72
2023-05-01T19:14:32.352Z,7.65
2023-05-01T19:17:34.273Z,7.59
2023-05-01T19:20:36.135Z,7.51
2023-05-01T19:23:39.956Z,7.47
2023-05-01T19:26:41.835Z,7.44
2023-05-01T19:29:44.657Z,7.38
2023-05-01T19:32:46.768Z,7.30
2023-05-01T19:35:48.673Z,7.28
2023-05-01T19:38:50.606Z,7.23
2023-05-01T19:41:53.075Z,7.21
2023-05-01T19:44:55.010Z,7.18
2023-05-01T19:47:56.994Z,7.19
2023-05-01T19:50:58.994Z,7.23
2023-05-01T19:54:01.533Z,7.30
2023-05-01T19:57:03.616Z,7.30
2023-05-01T20:00:07.156Z,7.28
